Terminal Aerodrome Forecast
Issued by NWS Buffalo, NY

Home | Current Version | Previous Version | Text Only | Print | Product List | Glossary On
Versions: 1 2 3 4 5 6 7 8 9 10 11 12 13 14 15 16 17 18 19 20 21 22 23 24 25 26 27 28 29
000
FTUS41 KBUF 151140 AAB
TAFBUF
TAF AMD
KBUF 151140Z 1512/1612 22004KT P6SM OVC020
      TEMPO 1513/1516 3SM -SHSN BKN020 OVC050
     FM151700 21011G17KT P6SM OVC035
     FM152200 21013G20KT 2SM -SN OVC015
     FM160000 21015G23KT 1/2SM SN BLSN VCTS OVC007CB
     FM160300 25014G25KT 2SM -SHSN OVC025
     FM160800 26015G23KT P6SM SCT080=

USA.gov is the U.S. government's official web portal to all federal, state and local government web resources and services.